OTHH Airport Information

Runway Information
Airport Frequencies
Airport Navaids
Airport Weather Information & NOTAM
ADDS - METARS form results

(1734 UTC 04 December 2021)
Data provider http://aviationweather.gov/metar/data/
 
METAR text: OTHH 041700Z AUTO 31009KT CAVOK 20/13 Q1019 NOSIG
Conditions at: OTHH (DOHA HAMAD INTL , QA) observed 1700 UTC 04 December 2021
Temperature: 20.0°C (68°F)
Dewpoint: 13.0°C (55°F) [RH = 64%]
Pressure (altimeter): 30.09 inches Hg (1019.0 mb)
Winds: from the NW (310 degrees) at 10 MPH (9 knots; 4.6 m/s)
Visibility: 6 or more miles (10+ km)
Ceiling: ceiling and visibility are OK
Clouds: unknown
Weather: no significant weather observed at this time

Forecast for: OTHH (DOHA HAMAD INTL , QA)
Text: TAF OTHH 041126Z 0412/0518 33013KT CAVOK
Forecast period: 1200 UTC 04 December 2021 to 1800 UTC 05 December 2021
Forecast type: FROM: standard forecast or significant change
Winds: from the NNW (330 degrees) at 15 MPH (13 knots; 6.7 m/s)
Visibility: 6 or more miles (10+ km)
Ceiling: unknown
Clouds: missing
Weather: NSW  (no significant weather)
Text: TEMPO 0418/0504 27007KT
Forecast period: 1800 UTC 04 December 2021 to 0400 UTC 05 December 2021
Forecast type: TEMPORARY: The following changes expected for less than half the time period
Winds: from the W (270 degrees) at 8 MPH (7 knots; 3.6 m/s)
Visibility: missing
Ceiling: unknown
Clouds: missing
Weather: no significant weather forecast for this period